sensor_id;sensor_type;location;lat;lon;timestamp;P1;durP1;ratioP1;P2;durP2;ratioP2
55483;SDS011;41345;51.704;5.146;2022-07-29T00:01:22;6.68;;;2.03;;
55483;SDS011;41345;51.704;5.146;2022-07-29T00:06:22;5.72;;;2.03;;
55483;SDS011;41345;51.704;5.146;2022-07-29T00:11:23;4.28;;;1.90;;
55483;SDS011;41345;51.704;5.146;2022-07-29T00:16:23;8.30;;;2.03;;
55483;SDS011;41345;51.704;5.146;2022-07-29T00:21:24;4.80;;;2.05;;
55483;SDS011;41345;51.704;5.146;2022-07-29T00:26:25;5.75;;;1.77;;
55483;SDS011;41345;51.704;5.146;2022-07-29T00:31:27;4.60;;;1.87;;
55483;SDS011;41345;51.704;5.146;2022-07-29T00:36:28;3.00;;;1.60;;
55483;SDS011;41345;51.704;5.146;2022-07-29T00:41:29;5.95;;;1.90;;
55483;SDS011;41345;51.704;5.146;2022-07-29T00:46:29;5.15;;;1.88;;
55483;SDS011;41345;51.704;5.146;2022-07-29T00:51:30;4.28;;;1.95;;
55483;SDS011;41345;51.704;5.146;2022-07-29T00:56:31;4.65;;;2.03;;
55483;SDS011;41345;51.704;5.146;2022-07-29T01:01:33;7.30;;;1.88;;
55483;SDS011;41345;51.704;5.146;2022-07-29T01:06:34;6.65;;;2.08;;
55483;SDS011;41345;51.704;5.146;2022-07-29T01:11:34;6.45;;;1.90;;
55483;SDS011;41345;51.704;5.146;2022-07-29T01:16:42;4.87;;;2.00;;
55483;SDS011;41345;51.704;5.146;2022-07-29T01:21:54;11.93;;;3.25;;
55483;SDS011;41345;51.704;5.146;2022-07-29T01:27:04;5.20;;;2.80;;
55483;SDS011;41345;51.704;5.146;2022-07-29T01:32:16;5.53;;;2.38;;
55483;SDS011;41345;51.704;5.146;2022-07-29T01:37:26;6.65;;;2.92;;
55483;SDS011;41345;51.704;5.146;2022-07-29T01:42:42;5.93;;;2.60;;
55483;SDS011;41345;51.704;5.146;2022-07-29T01:47:46;6.13;;;2.28;;
55483;SDS011;41345;51.704;5.146;2022-07-29T01:53:07;5.93;;;2.30;;
55483;SDS011;41345;51.704;5.146;2022-07-29T01:58:10;6.45;;;3.10;;
55483;SDS011;41345;51.704;5.146;2022-07-29T02:03:14;7.57;;;4.00;;
55483;SDS011;41345;51.704;5.146;2022-07-29T02:08:17;9.32;;;2.78;;
55483;SDS011;41345;51.704;5.146;2022-07-29T02:13:19;6.43;;;2.05;;
55483;SDS011;41345;51.704;5.146;2022-07-29T02:18:22;4.93;;;2.00;;
55483;SDS011;41345;51.704;5.146;2022-07-29T02:23:27;6.28;;;2.53;;
55483;SDS011;41345;51.704;5.146;2022-07-29T02:28:28;9.25;;;2.25;;
55483;SDS011;41345;51.704;5.146;2022-07-29T02:33:30;6.97;;;2.30;;
55483;SDS011;41345;51.704;5.146;2022-07-29T02:38:32;6.28;;;2.10;;
55483;SDS011;41345;51.704;5.146;2022-07-29T02:43:53;7.13;;;3.30;;
55483;SDS011;41345;51.704;5.146;2022-07-29T02:49:10;7.95;;;2.20;;
55483;SDS011;41345;51.704;5.146;2022-07-29T02:59:54;5.63;;;2.30;;
55483;SDS011;41345;51.704;5.146;2022-07-29T03:04:58;6.35;;;2.15;;
55483;SDS011;41345;51.704;5.146;2022-07-29T03:10:01;5.30;;;2.20;;
55483;SDS011;41345;51.704;5.146;2022-07-29T03:15:03;7.45;;;2.63;;
55483;SDS011;41345;51.704;5.146;2022-07-29T03:20:04;6.70;;;2.08;;
55483;SDS011;41345;51.704;5.146;2022-07-29T03:25:08;5.10;;;2.30;;
55483;SDS011;41345;51.704;5.146;2022-07-29T03:30:10;5.13;;;2.50;;
55483;SDS011;41345;51.704;5.146;2022-07-29T03:35:11;6.95;;;2.40;;
55483;SDS011;41345;51.704;5.146;2022-07-29T03:40:13;5.38;;;2.10;;
55483;SDS011;41345;51.704;5.146;2022-07-29T03:45:18;8.40;;;2.70;;
55483;SDS011;41345;51.704;5.146;2022-07-29T03:50:23;6.65;;;2.50;;
55483;SDS011;41345;51.704;5.146;2022-07-29T03:55:24;7.15;;;2.80;;
55483;SDS011;41345;51.704;5.146;2022-07-29T04:00:26;6.32;;;2.70;;
55483;SDS011;41345;51.704;5.146;2022-07-29T04:05:27;7.60;;;2.80;;
55483;SDS011;41345;51.704;5.146;2022-07-29T04:10:28;5.30;;;2.92;;
55483;SDS011;41345;51.704;5.146;2022-07-29T04:15:28;6.03;;;2.90;;
55483;SDS011;41345;51.704;5.146;2022-07-29T04:20:29;8.98;;;3.20;;
55483;SDS011;41345;51.704;5.146;2022-07-29T04:25:29;7.03;;;3.10;;
55483;SDS011;41345;51.704;5.146;2022-07-29T04:30:31;6.07;;;3.00;;
55483;SDS011;41345;51.704;5.146;2022-07-29T04:35:41;6.13;;;2.97;;
55483;SDS011;41345;51.704;5.146;2022-07-29T04:40:42;8.02;;;3.53;;
55483;SDS011;41345;51.704;5.146;2022-07-29T04:45:42;6.97;;;3.28;;
55483;SDS011;41345;51.704;5.146;2022-07-29T04:50:43;6.63;;;3.22;;
55483;SDS011;41345;51.704;5.146;2022-07-29T04:55:44;8.90;;;3.63;;
55483;SDS011;41345;51.704;5.146;2022-07-29T05:00:45;8.95;;;3.70;;
55483;SDS011;41345;51.704;5.146;2022-07-29T05:05:45;8.73;;;4.00;;
55483;SDS011;41345;51.704;5.146;2022-07-29T05:10:46;7.80;;;3.92;;
55483;SDS011;41345;51.704;5.146;2022-07-29T05:15:46;10.48;;;3.83;;
55483;SDS011;41345;51.704;5.146;2022-07-29T05:20:47;8.25;;;4.13;;
55483;SDS011;41345;51.704;5.146;2022-07-29T05:25:47;8.82;;;3.75;;
55483;SDS011;41345;51.704;5.146;2022-07-29T05:30:47;9.43;;;3.85;;
55483;SDS011;41345;51.704;5.146;2022-07-29T05:35:49;9.25;;;4.00;;
55483;SDS011;41345;51.704;5.146;2022-07-29T05:40:49;9.45;;;3.92;;
55483;SDS011;41345;51.704;5.146;2022-07-29T05:45:50;8.75;;;4.47;;
55483;SDS011;41345;51.704;5.146;2022-07-29T05:50:50;7.60;;;4.07;;
55483;SDS011;41345;51.704;5.146;2022-07-29T05:55:51;8.30;;;4.55;;
55483;SDS011;41345;51.704;5.146;2022-07-29T06:00:52;10.93;;;4.03;;
55483;SDS011;41345;51.704;5.146;2022-07-29T06:05:53;8.50;;;3.95;;
55483;SDS011;41345;51.704;5.146;2022-07-29T06:10:53;7.97;;;3.58;;
55483;SDS011;41345;51.704;5.146;2022-07-29T06:15:53;8.45;;;4.60;;
55483;SDS011;41345;51.704;5.146;2022-07-29T06:20:54;10.77;;;4.38;;
55483;SDS011;41345;51.704;5.146;2022-07-29T06:25:54;8.65;;;4.40;;
55483;SDS011;41345;51.704;5.146;2022-07-29T06:30:55;6.88;;;4.32;;
55483;SDS011;41345;51.704;5.146;2022-07-29T06:35:55;9.13;;;4.50;;
55483;SDS011;41345;51.704;5.146;2022-07-29T06:40:56;8.05;;;3.83;;
55483;SDS011;41345;51.704;5.146;2022-07-29T06:46:04;9.85;;;4.05;;
55483;SDS011;41345;51.704;5.146;2022-07-29T06:51:06;7.70;;;4.05;;
55483;SDS011;41345;51.704;5.146;2022-07-29T06:56:07;9.70;;;3.72;;
55483;SDS011;41345;51.704;5.146;2022-07-29T07:01:12;7.85;;;3.97;;
55483;SDS011;41345;51.704;5.146;2022-07-29T07:06:13;9.18;;;4.20;;
55483;SDS011;41345;51.704;5.146;2022-07-29T07:11:13;6.97;;;3.80;;
55483;SDS011;41345;51.704;5.146;2022-07-29T07:16:14;7.80;;;5.07;;
55483;SDS011;41345;51.704;5.146;2022-07-29T07:21:14;7.68;;;4.28;;
55483;SDS011;41345;51.704;5.146;2022-07-29T07:26:15;6.50;;;4.20;;
55483;SDS011;41345;51.704;5.146;2022-07-29T07:31:15;8.23;;;3.88;;
55483;SDS011;41345;51.704;5.146;2022-07-29T07:36:16;9.93;;;4.30;;
55483;SDS011;41345;51.704;5.146;2022-07-29T07:41:16;9.45;;;4.45;;
55483;SDS011;41345;51.704;5.146;2022-07-29T07:46:17;8.10;;;4.15;;
55483;SDS011;41345;51.704;5.146;2022-07-29T07:51:17;7.15;;;3.60;;
55483;SDS011;41345;51.704;5.146;2022-07-29T07:56:18;8.27;;;3.80;;
55483;SDS011;41345;51.704;5.146;2022-07-29T08:01:19;7.57;;;4.03;;
55483;SDS011;41345;51.704;5.146;2022-07-29T08:06:22;6.95;;;3.92;;
55483;SDS011;41345;51.704;5.146;2022-07-29T08:11:24;8.45;;;3.90;;
55483;SDS011;41345;51.704;5.146;2022-07-29T08:16:25;11.40;;;4.10;;
55483;SDS011;41345;51.704;5.146;2022-07-29T08:21:26;7.32;;;3.40;;
55483;SDS011;41345;51.704;5.146;2022-07-29T08:26:26;10.43;;;4.30;;
55483;SDS011;41345;51.704;5.146;2022-07-29T08:31:26;9.02;;;4.88;;
55483;SDS011;41345;51.704;5.146;2022-07-29T08:36:27;7.40;;;3.80;;
55483;SDS011;41345;51.704;5.146;2022-07-29T08:41:28;7.40;;;4.25;;
55483;SDS011;41345;51.704;5.146;2022-07-29T08:46:28;8.98;;;4.03;;
55483;SDS011;41345;51.704;5.146;2022-07-29T08:51:29;11.23;;;3.53;;
55483;SDS011;41345;51.704;5.146;2022-07-29T08:56:31;8.57;;;3.67;;
55483;SDS011;41345;51.704;5.146;2022-07-29T09:01:33;14.38;;;3.75;;
55483;SDS011;41345;51.704;5.146;2022-07-29T09:06:37;7.57;;;3.85;;
55483;SDS011;41345;51.704;5.146;2022-07-29T09:11:42;6.30;;;3.47;;
55483;SDS011;41345;51.704;5.146;2022-07-29T09:21:47;8.07;;;3.45;;
55483;SDS011;41345;51.704;5.146;2022-07-29T09:27:00;8.20;;;3.33;;
55483;SDS011;41345;51.704;5.146;2022-07-29T09:32:01;9.48;;;3.65;;
55483;SDS011;41345;51.704;5.146;2022-07-29T09:37:08;8.00;;;3.40;;
55483;SDS011;41345;51.704;5.146;2022-07-29T09:42:08;9.40;;;3.78;;
55483;SDS011;41345;51.704;5.146;2022-07-29T09:47:09;6.45;;;3.50;;
55483;SDS011;41345;51.704;5.146;2022-07-29T09:52:09;10.43;;;4.28;;
55483;SDS011;41345;51.704;5.146;2022-07-29T09:57:32;6.03;;;3.10;;
55483;SDS011;41345;51.704;5.146;2022-07-29T10:02:32;5.97;;;3.50;;
55483;SDS011;41345;51.704;5.146;2022-07-29T10:07:43;8.13;;;3.70;;
55483;SDS011;41345;51.704;5.146;2022-07-29T10:12:53;7.05;;;2.78;;
55483;SDS011;41345;51.704;5.146;2022-07-29T10:17:55;6.28;;;3.20;;
55483;SDS011;41345;51.704;5.146;2022-07-29T10:22:56;6.25;;;2.40;;
55483;SDS011;41345;51.704;5.146;2022-07-29T10:27:57;6.18;;;2.58;;
55483;SDS011;41345;51.704;5.146;2022-07-29T10:43:46;9.52;;;2.88;;
55483;SDS011;41345;51.704;5.146;2022-07-29T10:49:04;8.05;;;2.53;;
55483;SDS011;41345;51.704;5.146;2022-07-29T10:54:07;7.93;;;2.40;;
55483;SDS011;41345;51.704;5.146;2022-07-29T11:10:13;6.95;;;2.60;;
55483;SDS011;41345;51.704;5.146;2022-07-29T11:15:19;8.23;;;2.60;;
55483;SDS011;41345;51.704;5.146;2022-07-29T11:20:38;6.53;;;2.20;;
55483;SDS011;41345;51.704;5.146;2022-07-29T11:47:20;6.88;;;2.60;;
55483;SDS011;41345;51.704;5.146;2022-07-29T11:52:21;5.53;;;2.03;;
55483;SDS011;41345;51.704;5.146;2022-07-29T11:57:22;5.72;;;2.00;;
55483;SDS011;41345;51.704;5.146;2022-07-29T12:02:24;7.40;;;2.00;;
55483;SDS011;41345;51.704;5.146;2022-07-29T12:07:39;4.40;;;1.60;;
55483;SDS011;41345;51.704;5.146;2022-07-29T12:12:40;6.38;;;2.08;;
55483;SDS011;41345;51.704;5.146;2022-07-29T12:17:40;17.52;;;2.58;;
55483;SDS011;41345;51.704;5.146;2022-07-29T12:22:41;6.03;;;1.60;;
55483;SDS011;41345;51.704;5.146;2022-07-29T12:27:44;6.70;;;2.33;;
55483;SDS011;41345;51.704;5.146;2022-07-29T12:32:46;4.90;;;2.55;;
55483;SDS011;41345;51.704;5.146;2022-07-29T12:37:47;7.65;;;2.35;;
55483;SDS011;41345;51.704;5.146;2022-07-29T12:48:13;15.10;;;2.17;;
55483;SDS011;41345;51.704;5.146;2022-07-29T12:53:14;5.50;;;2.00;;
55483;SDS011;41345;51.704;5.146;2022-07-29T12:58:34;5.22;;;1.67;;
55483;SDS011;41345;51.704;5.146;2022-07-29T13:03:51;3.75;;;1.80;;
55483;SDS011;41345;51.704;5.146;2022-07-29T13:09:02;7.20;;;1.90;;
55483;SDS011;41345;51.704;5.146;2022-07-29T13:14:14;5.85;;;2.28;;
55483;SDS011;41345;51.704;5.146;2022-07-29T13:19:34;8.10;;;1.92;;
55483;SDS011;41345;51.704;5.146;2022-07-29T13:24:49;12.73;;;2.25;;
55483;SDS011;41345;51.704;5.146;2022-07-29T13:29:52;7.00;;;1.70;;
55483;SDS011;41345;51.704;5.146;2022-07-29T13:34:55;5.83;;;1.77;;
55483;SDS011;41345;51.704;5.146;2022-07-29T13:39:56;7.10;;;2.20;;
55483;SDS011;41345;51.704;5.146;2022-07-29T13:44:57;8.25;;;1.92;;
55483;SDS011;41345;51.704;5.146;2022-07-29T13:49:57;5.40;;;1.60;;
55483;SDS011;41345;51.704;5.146;2022-07-29T13:54:58;6.07;;;1.80;;
55483;SDS011;41345;51.704;5.146;2022-07-29T13:59:58;6.55;;;1.70;;
55483;SDS011;41345;51.704;5.146;2022-07-29T14:04:59;5.53;;;1.73;;
55483;SDS011;41345;51.704;5.146;2022-07-29T14:09:59;5.77;;;1.50;;
55483;SDS011;41345;51.704;5.146;2022-07-29T14:15:00;7.28;;;1.80;;
55483;SDS011;41345;51.704;5.146;2022-07-29T14:20:01;3.88;;;1.50;;
55483;SDS011;41345;51.704;5.146;2022-07-29T14:25:01;7.88;;;1.63;;
55483;SDS011;41345;51.704;5.146;2022-07-29T14:30:02;8.40;;;2.33;;
55483;SDS011;41345;51.704;5.146;2022-07-29T14:35:02;5.25;;;1.48;;
55483;SDS011;41345;51.704;5.146;2022-07-29T14:40:03;4.32;;;1.60;;
55483;SDS011;41345;51.704;5.146;2022-07-29T14:45:05;4.15;;;1.33;;
55483;SDS011;41345;51.704;5.146;2022-07-29T14:50:07;4.97;;;1.63;;
55483;SDS011;41345;51.704;5.146;2022-07-29T14:55:08;8.30;;;1.70;;
55483;SDS011;41345;51.704;5.146;2022-07-29T15:00:09;5.13;;;1.67;;
55483;SDS011;41345;51.704;5.146;2022-07-29T15:05:11;4.15;;;1.50;;
55483;SDS011;41345;51.704;5.146;2022-07-29T15:10:11;6.65;;;1.67;;
55483;SDS011;41345;51.704;5.146;2022-07-29T15:15:12;6.83;;;1.80;;
55483;SDS011;41345;51.704;5.146;2022-07-29T15:20:12;4.97;;;1.65;;
55483;SDS011;41345;51.704;5.146;2022-07-29T15:25:13;8.32;;;1.90;;
55483;SDS011;41345;51.704;5.146;2022-07-29T15:30:14;5.03;;;1.85;;
55483;SDS011;41345;51.704;5.146;2022-07-29T15:35:16;5.75;;;1.77;;
55483;SDS011;41345;51.704;5.146;2022-07-29T15:40:17;11.10;;;2.15;;
55483;SDS011;41345;51.704;5.146;2022-07-29T15:45:17;6.90;;;2.20;;
55483;SDS011;41345;51.704;5.146;2022-07-29T15:50:18;10.65;;;2.40;;
55483;SDS011;41345;51.704;5.146;2022-07-29T15:55:19;6.65;;;2.83;;
55483;SDS011;41345;51.704;5.146;2022-07-29T16:00:19;8.10;;;2.10;;
55483;SDS011;41345;51.704;5.146;2022-07-29T16:05:21;7.28;;;2.63;;
55483;SDS011;41345;51.704;5.146;2022-07-29T16:10:22;6.40;;;2.25;;
55483;SDS011;41345;51.704;5.146;2022-07-29T16:15:22;5.88;;;2.30;;
55483;SDS011;41345;51.704;5.146;2022-07-29T16:20:23;7.70;;;2.60;;
55483;SDS011;41345;51.704;5.146;2022-07-29T16:25:23;10.10;;;2.28;;
55483;SDS011;41345;51.704;5.146;2022-07-29T16:30:24;5.70;;;2.10;;
55483;SDS011;41345;51.704;5.146;2022-07-29T16:35:24;8.32;;;2.20;;
55483;SDS011;41345;51.704;5.146;2022-07-29T16:40:25;5.35;;;2.05;;
55483;SDS011;41345;51.704;5.146;2022-07-29T16:45:26;8.20;;;2.40;;
55483;SDS011;41345;51.704;5.146;2022-07-29T16:50:28;4.60;;;2.00;;
55483;SDS011;41345;51.704;5.146;2022-07-29T16:55:29;7.85;;;2.28;;
55483;SDS011;41345;51.704;5.146;2022-07-29T17:00:30;4.75;;;2.03;;
55483;SDS011;41345;51.704;5.146;2022-07-29T17:10:33;5.70;;;2.10;;
55483;SDS011;41345;51.704;5.146;2022-07-29T17:15:34;4.63;;;1.80;;
55483;SDS011;41345;51.704;5.146;2022-07-29T17:20:35;5.60;;;1.83;;
55483;SDS011;41345;51.704;5.146;2022-07-29T17:25:36;7.20;;;1.65;;
55483;SDS011;41345;51.704;5.146;2022-07-29T17:30:37;4.75;;;2.08;;
55483;SDS011;41345;51.704;5.146;2022-07-29T17:35:37;6.55;;;1.55;;
55483;SDS011;41345;51.704;5.146;2022-07-29T17:40:56;5.75;;;2.15;;
55483;SDS011;41345;51.704;5.146;2022-07-29T17:45:57;3.17;;;1.40;;
55483;SDS011;41345;51.704;5.146;2022-07-29T17:50:58;9.68;;;2.30;;
55483;SDS011;41345;51.704;5.146;2022-07-29T17:55:58;12.87;;;3.03;;
55483;SDS011;41345;51.704;5.146;2022-07-29T18:00:59;13.52;;;2.92;;
55483;SDS011;41345;51.704;5.146;2022-07-29T18:05:59;4.55;;;1.75;;
55483;SDS011;41345;51.704;5.146;2022-07-29T18:11:00;5.28;;;1.65;;
55483;SDS011;41345;51.704;5.146;2022-07-29T18:16:01;9.27;;;1.50;;
55483;SDS011;41345;51.704;5.146;2022-07-29T18:21:03;5.80;;;1.48;;
55483;SDS011;41345;51.704;5.146;2022-07-29T18:26:03;6.38;;;1.67;;
55483;SDS011;41345;51.704;5.146;2022-07-29T18:31:04;4.38;;;1.52;;
55483;SDS011;41345;51.704;5.146;2022-07-29T18:36:04;7.65;;;1.88;;
55483;SDS011;41345;51.704;5.146;2022-07-29T18:41:06;10.85;;;2.28;;
55483;SDS011;41345;51.704;5.146;2022-07-29T18:46:06;7.47;;;2.05;;
55483;SDS011;41345;51.704;5.146;2022-07-29T18:51:07;6.03;;;2.25;;
55483;SDS011;41345;51.704;5.146;2022-07-29T18:56:08;7.00;;;2.15;;
55483;SDS011;41345;51.704;5.146;2022-07-29T19:01:08;5.63;;;1.67;;
55483;SDS011;41345;51.704;5.146;2022-07-29T19:06:09;6.57;;;1.80;;
55483;SDS011;41345;51.704;5.146;2022-07-29T19:11:09;5.47;;;1.77;;
55483;SDS011;41345;51.704;5.146;2022-07-29T19:16:11;4.72;;;1.73;;
55483;SDS011;41345;51.704;5.146;2022-07-29T19:21:13;7.03;;;1.60;;
55483;SDS011;41345;51.704;5.146;2022-07-29T19:26:13;4.00;;;1.70;;
55483;SDS011;41345;51.704;5.146;2022-07-29T19:31:14;5.45;;;1.95;;
55483;SDS011;41345;51.704;5.146;2022-07-29T19:36:14;13.50;;;2.40;;
55483;SDS011;41345;51.704;5.146;2022-07-29T19:41:14;12.47;;;2.57;;
55483;SDS011;41345;51.704;5.146;2022-07-29T19:46:16;9.90;;;2.97;;
55483;SDS011;41345;51.704;5.146;2022-07-29T19:51:16;12.48;;;2.50;;
55483;SDS011;41345;51.704;5.146;2022-07-29T19:56:16;8.70;;;2.42;;
55483;SDS011;41345;51.704;5.146;2022-07-29T20:01:17;9.15;;;2.58;;
55483;SDS011;41345;51.704;5.146;2022-07-29T20:06:18;8.75;;;2.28;;
55483;SDS011;41345;51.704;5.146;2022-07-29T20:11:18;7.90;;;2.22;;
55483;SDS011;41345;51.704;5.146;2022-07-29T20:16:19;8.05;;;2.58;;
55483;SDS011;41345;51.704;5.146;2022-07-29T20:21:21;8.52;;;2.53;;
55483;SDS011;41345;51.704;5.146;2022-07-29T20:26:21;14.40;;;3.13;;
55483;SDS011;41345;51.704;5.146;2022-07-29T20:31:22;8.88;;;3.10;;
55483;SDS011;41345;51.704;5.146;2022-07-29T20:36:23;9.93;;;3.55;;
55483;SDS011;41345;51.704;5.146;2022-07-29T20:41:24;21.33;;;4.28;;
55483;SDS011;41345;51.704;5.146;2022-07-29T20:46:25;12.13;;;3.22;;
55483;SDS011;41345;51.704;5.146;2022-07-29T20:51:25;13.57;;;3.42;;
55483;SDS011;41345;51.704;5.146;2022-07-29T20:56:26;12.70;;;3.60;;
55483;SDS011;41345;51.704;5.146;2022-07-29T21:01:26;11.38;;;3.88;;
55483;SDS011;41345;51.704;5.146;2022-07-29T21:06:27;11.25;;;3.67;;
55483;SDS011;41345;51.704;5.146;2022-07-29T21:11:28;9.05;;;3.30;;
55483;SDS011;41345;51.704;5.146;2022-07-29T21:16:28;10.52;;;3.95;;
55483;SDS011;41345;51.704;5.146;2022-07-29T21:21:30;11.45;;;3.85;;
55483;SDS011;41345;51.704;5.146;2022-07-29T21:26:31;10.18;;;3.45;;
55483;SDS011;41345;51.704;5.146;2022-07-29T21:31:32;9.18;;;4.03;;
55483;SDS011;41345;51.704;5.146;2022-07-29T21:36:33;13.65;;;5.05;;
55483;SDS011;41345;51.704;5.146;2022-07-29T21:41:33;12.52;;;4.63;;
55483;SDS011;41345;51.704;5.146;2022-07-29T21:46:35;11.80;;;4.45;;
55483;SDS011;41345;51.704;5.146;2022-07-29T21:51:35;11.85;;;4.55;;
55483;SDS011;41345;51.704;5.146;2022-07-29T21:56:36;15.10;;;4.95;;
55483;SDS011;41345;51.704;5.146;2022-07-29T22:01:36;11.57;;;4.43;;
55483;SDS011;41345;51.704;5.146;2022-07-29T22:06:37;11.93;;;5.63;;
55483;SDS011;41345;51.704;5.146;2022-07-29T22:11:37;15.68;;;5.50;;
55483;SDS011;41345;51.704;5.146;2022-07-29T22:16:38;21.13;;;6.30;;
55483;SDS011;41345;51.704;5.146;2022-07-29T22:21:39;15.52;;;6.28;;
55483;SDS011;41345;51.704;5.146;2022-07-29T22:26:40;16.08;;;6.75;;
55483;SDS011;41345;51.704;5.146;2022-07-29T22:31:40;16.40;;;6.87;;
55483;SDS011;41345;51.704;5.146;2022-07-29T22:36:41;16.48;;;6.95;;
55483;SDS011;41345;51.704;5.146;2022-07-29T22:41:42;16.77;;;7.55;;
55483;SDS011;41345;51.704;5.146;2022-07-29T22:46:42;14.93;;;7.13;;
55483;SDS011;41345;51.704;5.146;2022-07-29T22:51:43;16.45;;;7.60;;
55483;SDS011;41345;51.704;5.146;2022-07-29T22:56:43;17.50;;;8.10;;
55483;SDS011;41345;51.704;5.146;2022-07-29T23:01:44;22.17;;;8.73;;
55483;SDS011;41345;51.704;5.146;2022-07-29T23:06:44;17.90;;;8.87;;
55483;SDS011;41345;51.704;5.146;2022-07-29T23:11:45;19.15;;;9.20;;
55483;SDS011;41345;51.704;5.146;2022-07-29T23:16:46;22.85;;;9.88;;
55483;SDS011;41345;51.704;5.146;2022-07-29T23:21:46;22.80;;;10.35;;
55483;SDS011;41345;51.704;5.146;2022-07-29T23:26:47;17.45;;;10.63;;
55483;SDS011;41345;51.704;5.146;2022-07-29T23:31:47;18.60;;;11.57;;
55483;SDS011;41345;51.704;5.146;2022-07-29T23:36:47;19.17;;;12.40;;
55483;SDS011;41345;51.704;5.146;2022-07-29T23:41:48;23.15;;;12.00;;
55483;SDS011;41345;51.704;5.146;2022-07-29T23:46:49;19.23;;;10.52;;
55483;SDS011;41345;51.704;5.146;2022-07-29T23:51:49;15.13;;;10.07;;
55483;SDS011;41345;51.704;5.146;2022-07-29T23:56:49;19.53;;;12.13;;
